createdAt,value
2022-07-28T00:03:55.689Z,100649.84
2022-07-28T00:09:02.994Z,100650.84
2022-07-28T00:14:08.080Z,100646.69
2022-07-28T00:19:12.259Z,100651.44
2022-07-28T00:24:19.748Z,100649.47
2022-07-28T00:29:25.623Z,100645.50
2022-07-28T00:34:53.477Z,100645.97
2022-07-28T00:40:01.175Z,100641.81
2022-07-28T00:45:05.649Z,100638.84
2022-07-28T00:50:15.847Z,100635.19
2022-07-28T00:55:22.973Z,100638.78
2022-07-28T01:00:27.729Z,100634.13
2022-07-28T01:05:43.608Z,100628.34
2022-07-28T01:11:04.387Z,100631.44
2022-07-28T01:16:09.796Z,100633.09
2022-07-28T01:21:17.443Z,100638.00
2022-07-28T01:26:49.457Z,100639.28
2022-07-28T01:32:02.050Z,100646.34
2022-07-28T01:37:13.178Z,100637.94
2022-07-28T01:42:23.457Z,100634.09
2022-07-28T01:47:31.820Z,100643.31
2022-07-28T01:52:39.691Z,100641.28
2022-07-28T01:57:46.033Z,100641.22
2022-07-28T02:02:54.849Z,100634.75
2022-07-28T02:08:02.635Z,100631.56
2022-07-28T02:13:09.465Z,100637.16
2022-07-28T02:18:15.454Z,100639.59
2022-07-28T02:23:21.321Z,100643.84
2022-07-28T02:28:32.171Z,100644.28
2022-07-28T02:33:59.421Z,100644.72
2022-07-28T02:39:08.735Z,100654.38
2022-07-28T02:44:17.708Z,100655.00
2022-07-28T02:49:34.030Z,100653.50
2022-07-28T02:54:44.832Z,100651.47
2022-07-28T02:59:50.723Z,100661.66
2022-07-28T03:04:59.823Z,100653.34
2022-07-28T03:10:07.146Z,100673.75
2022-07-28T03:15:12.353Z,100672.94
2022-07-28T03:20:19.004Z,100669.16
2022-07-28T03:25:32.269Z,100686.63
2022-07-28T03:30:49.141Z,100674.28
2022-07-28T03:35:58.746Z,100680.53
2022-07-28T03:41:10.020Z,100684.47
2022-07-28T03:46:14.964Z,100688.06
2022-07-28T03:51:20.894Z,100683.91
2022-07-28T03:56:25.134Z,100686.88
2022-07-28T04:01:29.204Z,100693.94
2022-07-28T04:06:34.382Z,100699.56
2022-07-28T04:11:38.470Z,100693.97
2022-07-28T04:16:46.482Z,100695.00
2022-07-28T04:21:53.136Z,100688.31
2022-07-28T04:26:59.939Z,100686.44
2022-07-28T04:32:04.144Z,100683.09
2022-07-28T04:37:11.147Z,100682.00
2022-07-28T04:42:15.801Z,100676.81
2022-07-28T04:47:22.218Z,100676.75
2022-07-28T04:52:29.175Z,100675.16
2022-07-28T04:57:34.238Z,100678.53
2022-07-28T05:02:43.939Z,100677.97
2022-07-28T05:07:50.464Z,100670.50
2022-07-28T05:12:55.284Z,100668.41
2022-07-28T05:18:03.551Z,100669.41
2022-07-28T05:23:11.845Z,100673.13
2022-07-28T05:28:17.654Z,100682.28
2022-07-28T05:33:21.728Z,100678.19
2022-07-28T05:38:27.630Z,100680.72
2022-07-28T05:43:40.353Z,100685.84
2022-07-28T05:48:45.306Z,100685.53
2022-07-28T05:53:53.559Z,100689.69
2022-07-28T05:58:58.533Z,100692.78
2022-07-28T06:04:26.700Z,100691.31
2022-07-28T06:09:45.970Z,100691.16
2022-07-28T06:14:50.253Z,100695.19
2022-07-28T06:19:55.056Z,100700.78
2022-07-28T06:25:05.448Z,100702.81
2022-07-28T06:30:11.280Z,100697.16
2022-07-28T06:35:17.471Z,100704.13
2022-07-28T06:40:26.630Z,100701.47
2022-07-28T06:45:34.840Z,100704.06
2022-07-28T06:50:45.879Z,100717.75
2022-07-28T06:55:58.122Z,100705.38
2022-07-28T07:01:12.774Z,100706.25
2022-07-28T07:06:19.075Z,100716.00
2022-07-28T07:11:28.918Z,100700.00
2022-07-28T07:16:39.158Z,100699.50
2022-07-28T07:21:50.317Z,100701.53
2022-07-28T07:27:05.606Z,100714.31
2022-07-28T07:32:12.365Z,100701.44
2022-07-28T07:37:35.163Z,100693.25
2022-07-28T07:42:48.484Z,100689.91
2022-07-28T07:48:01.317Z,100684.13
2022-07-28T07:53:17.044Z,100689.59
2022-07-28T07:58:29.801Z,100674.84
2022-07-28T08:03:38.536Z,100686.56
2022-07-28T08:09:13.385Z,100675.63
2022-07-28T08:14:43.097Z,100666.78
2022-07-28T08:20:07.730Z,100677.59
2022-07-28T08:25:21.891Z,100668.78
2022-07-28T08:30:32.984Z,100671.50
2022-07-28T08:35:47.061Z,100669.38
2022-07-28T08:41:03.033Z,100671.34
2022-07-28T08:46:30.973Z,100662.97
2022-07-28T08:51:39.726Z,100653.75
2022-07-28T08:56:58.034Z,100656.22
2022-07-28T09:02:31.787Z,100662.66
2022-07-28T09:07:54.436Z,100658.75
2022-07-28T09:13:13.896Z,100669.94
2022-07-28T09:18:21.624Z,100658.59
2022-07-28T09:23:58.117Z,100655.59
2022-07-28T09:29:18.428Z,100658.91
2022-07-28T09:34:36.541Z,100648.84
2022-07-28T09:39:44.329Z,100658.50
2022-07-28T09:45:22.789Z,100645.31
2022-07-28T09:50:39.307Z,100654.91
2022-07-28T09:55:57.620Z,100645.25
2022-07-28T10:01:16.520Z,100638.47
2022-07-28T10:06:43.070Z,100630.19
2022-07-28T10:11:49.363Z,100630.38
2022-07-28T10:17:05.640Z,100619.22
2022-07-28T10:22:21.145Z,100620.06
2022-07-28T10:27:40.155Z,100612.47
2022-07-28T10:32:47.529Z,100622.78
2022-07-28T10:38:21.859Z,100612.03
2022-07-28T10:43:33.365Z,100604.63
2022-07-28T10:48:49.795Z,100598.84
2022-07-28T10:54:25.542Z,100596.97
2022-07-28T11:00:13.344Z,100591.47
2022-07-28T11:05:32.120Z,100591.72
2022-07-28T11:10:51.675Z,100589.63
2022-07-28T11:15:59.177Z,100606.69
2022-07-28T11:21:41.158Z,100593.03
2022-07-28T11:26:51.518Z,100591.34
2022-07-28T11:32:14.297Z,100584.88
2022-07-28T11:37:19.654Z,100572.50
2022-07-28T11:42:43.151Z,100579.66
2022-07-28T11:47:50.018Z,100569.88
2022-07-28T11:53:00.522Z,100560.94
2022-07-28T11:58:08.601Z,100554.50
2022-07-28T12:03:13.857Z,100559.94
2022-07-28T12:08:18.839Z,100555.41
2022-07-28T12:13:32.028Z,100547.94
2022-07-28T12:18:36.949Z,100540.13
2022-07-28T12:23:49.689Z,100540.22
2022-07-28T12:28:57.097Z,100534.28
2022-07-28T12:34:03.365Z,100527.59
2022-07-28T12:39:15.435Z,100525.19
2022-07-28T12:44:26.568Z,100501.78
2022-07-28T12:49:35.749Z,100511.63
2022-07-28T12:54:53.401Z,100518.28
2022-07-28T13:00:12.576Z,100507.75
2022-07-28T13:06:03.517Z,100516.38
2022-07-28T13:11:17.351Z,100492.34
2022-07-28T13:16:35.216Z,100492.75
2022-07-28T13:21:58.528Z,100494.78
2022-07-28T13:27:04.821Z,100484.81
2022-07-28T13:32:14.511Z,100472.63
2022-07-28T13:37:19.101Z,100477.63
2022-07-28T13:42:26.951Z,100474.13
2022-07-28T13:47:42.855Z,100472.28
2022-07-28T13:52:51.951Z,100461.19
2022-07-28T13:58:00.600Z,100461.53
2022-07-28T14:03:08.588Z,100456.31
2022-07-28T14:08:19.772Z,100451.09
2022-07-28T14:13:28.287Z,100452.75
2022-07-28T14:18:37.936Z,100444.09
2022-07-28T14:23:44.061Z,100444.09
2022-07-28T14:28:49.141Z,100432.28
2022-07-28T14:33:57.515Z,100433.69
2022-07-28T14:39:03.212Z,100438.22
2022-07-28T14:44:23.903Z,100437.78
2022-07-28T14:49:34.069Z,100438.69
2022-07-28T14:54:42.874Z,100433.97
2022-07-28T14:59:47.551Z,100424.53
2022-07-28T15:04:54.399Z,100422.97
2022-07-28T15:09:59.721Z,100409.91
2022-07-28T15:15:13.621Z,100417.28
2022-07-28T15:20:19.839Z,100415.66
2022-07-28T15:25:33.780Z,100416.63
2022-07-28T15:30:49.253Z,100408.28
2022-07-28T15:36:01.031Z,100414.28
2022-07-28T15:41:06.920Z,100411.25
2022-07-28T15:46:13.675Z,100400.09
2022-07-28T15:51:24.082Z,100416.31
2022-07-28T15:56:34.300Z,100405.00
2022-07-28T16:01:45.458Z,100406.28
2022-07-28T16:07:14.390Z,100401.38
2022-07-28T16:12:18.987Z,100403.44
2022-07-28T16:17:31.172Z,100392.13
2022-07-28T16:22:38.638Z,100391.91
2022-07-28T16:27:46.833Z,100389.50
2022-07-28T16:32:51.682Z,100388.94
2022-07-28T16:37:58.138Z,100383.81
2022-07-28T16:43:06.475Z,100394.97
2022-07-28T16:48:12.593Z,100388.19
2022-07-28T16:53:22.717Z,100381.06
2022-07-28T16:58:29.766Z,100387.22
2022-07-28T17:03:35.311Z,100381.28
2022-07-28T17:08:50.087Z,100388.13
2022-07-28T17:14:00.718Z,100393.31
2022-07-28T17:19:06.887Z,100384.31
2022-07-28T17:24:18.966Z,100384.72
2022-07-28T17:29:51.775Z,100390.31
2022-07-28T17:35:00.794Z,100389.16
2022-07-28T17:40:10.738Z,100391.88
2022-07-28T17:45:22.733Z,100389.72
2022-07-28T17:50:27.551Z,100387.56
2022-07-28T17:55:41.243Z,100388.06
2022-07-28T18:01:11.275Z,100394.91
2022-07-28T18:06:18.086Z,100400.97
2022-07-28T18:11:57.165Z,100395.72
2022-07-28T18:17:13.442Z,100400.56
2022-07-28T18:22:51.456Z,100398.97
2022-07-28T18:28:07.030Z,100403.00
2022-07-28T18:33:29.668Z,100386.81
2022-07-28T18:38:56.331Z,100394.88
2022-07-28T18:44:19.442Z,100388.13
2022-07-28T18:49:45.729Z,100386.97
2022-07-28T18:54:58.300Z,100392.97
2022-07-28T19:00:08.493Z,100400.41
2022-07-28T19:05:16.621Z,100395.91
2022-07-28T19:10:42.270Z,100411.28
2022-07-28T19:16:13.628Z,100413.78
2022-07-28T19:21:19.808Z,100417.72
2022-07-28T19:26:31.941Z,100424.28
2022-07-28T19:31:39.139Z,100431.50
2022-07-28T19:36:51.791Z,100430.25
2022-07-28T19:42:00.395Z,100428.63
2022-07-28T19:47:11.775Z,100441.50
2022-07-28T19:52:17.053Z,100446.00
2022-07-28T19:57:27.762Z,100452.34
2022-07-28T20:02:49.038Z,100447.19
2022-07-28T20:07:55.574Z,100460.91
2022-07-28T20:13:02.969Z,100459.22
2022-07-28T20:18:14.892Z,100454.28
2022-07-28T20:23:28.862Z,100454.78
2022-07-28T20:28:37.267Z,100464.34
2022-07-28T20:33:46.109Z,100460.22
2022-07-28T20:38:57.869Z,100460.16
2022-07-28T20:44:28.346Z,100459.66
2022-07-28T20:49:44.695Z,100452.25
2022-07-28T20:54:54.571Z,100460.75
2022-07-28T21:00:09.955Z,100461.91
2022-07-28T21:05:26.525Z,100466.72
2022-07-28T21:10:42.093Z,100460.28
2022-07-28T21:15:47.518Z,100474.34
2022-07-28T21:20:55.565Z,100481.44
2022-07-28T21:26:00.498Z,100481.38
2022-07-28T21:31:06.271Z,100478.84
2022-07-28T21:36:17.066Z,100478.97
2022-07-28T21:41:25.420Z,100474.78
2022-07-28T21:46:34.539Z,100479.19
2022-07-28T21:51:50.854Z,100476.44
2022-07-28T21:56:56.840Z,100479.22
2022-07-28T22:02:05.143Z,100492.06
2022-07-28T22:07:28.552Z,100493.47
2022-07-28T22:12:37.479Z,100495.00
2022-07-28T22:17:44.430Z,100500.72
2022-07-28T22:22:57.319Z,100496.75
2022-07-28T22:28:06.568Z,100507.28
2022-07-28T22:33:12.375Z,100510.69
2022-07-28T22:38:22.635Z,100519.03
2022-07-28T22:43:30.018Z,100519.94
2022-07-28T22:48:36.224Z,100506.78
2022-07-28T22:53:44.656Z,100506.50
2022-07-28T22:58:56.675Z,100517.00
2022-07-28T23:04:12.793Z,100528.00
2022-07-28T23:09:56.132Z,100527.19
2022-07-28T23:15:02.427Z,100519.72
2022-07-28T23:20:12.407Z,100524.03
2022-07-28T23:25:24.520Z,100526.22
2022-07-28T23:30:40.578Z,100536.19
2022-07-28T23:35:55.724Z,100517.50
2022-07-28T23:41:21.844Z,100508.53
2022-07-28T23:46:38.373Z,100516.06
2022-07-28T23:52:07.374Z,100509.75
2022-07-28T23:57:14.290Z,100500.66
